Athol, MA (01331)

11:52 AM EDT on May 26, 2017 (GMT -0400)
Harvard Ave, Athol | | Change Station

Elev 539 ft 42.58 °N, 72.24 °W | Updated 4 seconds ago

Overcast
Overcast
55.6 °F
Feels Like 55.6 °F
N
0.0
Wind Variable Wind from NNW
Gusts 0.0 mph

Today
High -- | Low -- °F
--% Chance of Precip.
Yesterday
High -- | Low -- °F
Precip. -- in
Pressure 29.54 in
Visibility 10.0 miles
Clouds Scattered Clouds 1100 ft
Mostly Cloudy 1800 ft
Overcast 8000 ft
Dew Point 43 °F
Humidity 63%
Rainfall 0.79 in
Snow Depth Not available.
5:17 AM 8:15 PM
New Moon, 1% visible
SPECI KORE 261510Z AUTO 01006KT 10SM SCT011 BKN018 OVC080 12/10 A2954 RMK AO2 T01220100 TSNO
Pressure 29.54 in
Visibility 10.0 miles
Clouds Scattered Clouds 1100 ft
Mostly Cloudy 1800 ft
Overcast 8000 ft
Dew Point 43 °F
Humidity 63%
Rainfall 0.79 in
Snow Depth Not available.
5:17 AM 8:15 PM
New Moon, 1% visible
SPECI KORE 261510Z AUTO 01006KT 10SM SCT011 BKN018 OVC080 12/10 A2954 RMK AO2 T01220100 TSNO

Get Severe Weather Alerts

Thanks for signing up!

Be on the lookout for a verification email in your inbox.

You'll start receiving the daily forecast at 6 AM.

×

10-Day Weather Forecast

Almanac

Astronomy

May. 26, 2017 Rise Set
Actual Time
Civil Twilight
Nautical Twilight
Astronomical Twilight
Moon
Length of Visible Light
Length of Day
Tomorrow will be .
, % of the Moon is Illuminated

Today's Extremes

State Highs State Lows

Community

WunderPhotos

Category 6

Welcome to Category 6. This is the collective home for Weather Underground's featured writeups by Dr. Jeff Masters (right), Bob Henson (left), Chris Burt, and other regular contributors.

Nearby

Air Quality

  Air Quality AQ Index Pollutant
Not available.

Snow Depth

Station Depth Elevation

Earthquake Activity

City Distance Mag. Time & Date
Minimum magnitude displayed is 2.5.

Coastal Water Temperatures

Place Temperature

Stations

Nearby Weather Stations

Station Location Temp. Windchill Dew Point Humidity Wind Precip. Elev Updated Type
                   

Watches & Warnings

There are currently no watches in effect.